DEN weather

Denver International Airport
Denver, Colorado, United States

Public forecast

Using degrees Fahrenheit for public forecast. Weather courtesy of forecast.io.

METAR (pilot weather report)

Retrieved 2018/10/17 01:53 UTC (41 minutes ago):

KDEN 170153Z 00000KT 10SM CLR 09/M02 A3042 RMK AO2 SLP293 T00941017

TAF (pilot weather forecast)

Forecast is more than 12 hours old.

Retrieved 2018/10/16 00:39 UTC (1 day ago):

TAF KDEN 162337Z 1700/1806 02007KT P6SM FEW100 FM170300 12006KT P6SM SKC FM170600 20008KT P6SM FEW250 FM171900 15009G15KT P6SM SCT140 BKN250 FM180400 20011KT P6SM FEW140 SCT250